Time;durP1;ratioP1;P1;durP2;ratioP2;P2;SDS_P1;SDS_P2;PMS_P1;PMS_P2;Temp;Humidity;BMP_temperature;BMP_pressure;BME280_temperature;BME280_humidity;BME280_pressure;Samples;Min_cycle;Max_cycle;Signal;HPM_P1;HPM_P2
2022/12/28 00:01:17;;;;;;;0.30;0.30;;;;;;;3.20;100.00;100973.50;5020782;28;20495;-51
2022/12/28 00:03:44;;;;;;;0.50;0.50;;;;;;;3.14;100.00;100966.41;5022091;28;20453;-52
2022/12/28 00:06:11;;;;;;;0.60;0.60;;;;;;;3.20;100.00;100949.84;5027428;28;20488;-52
2022/12/28 00:08:39;;;;;;;1.20;1.10;;;;;;;3.26;100.00;100940.28;5031643;28;20538;-51
2022/12/28 00:11:09;;;;;;;0.40;0.40;;;;;;;3.45;100.00;100936.13;5020558;28;20455;-52
2022/12/28 00:13:49;;;;;;;7.53;1.80;;;;;;;3.33;100.00;100943.00;5004689;28;20445;-51
2022/12/28 00:16:29;;;;;;;0.30;0.27;;;;;;;3.29;100.00;100934.22;5025970;28;20969;-52
2022/12/28 00:18:58;;;;;;;2.00;1.23;;;;;;;3.31;100.00;100924.59;5027202;28;20470;-53
2022/12/28 00:21:25;;;;;;;0.83;0.73;;;;;;;3.30;100.00;100921.97;5024306;28;20452;-51
2022/12/28 00:23:53;;;;;;;0.60;0.60;;;;;;;3.31;100.00;100921.09;5020459;28;20458;-53
2022/12/28 00:26:24;;;;;;;0.93;0.50;;;;;;;3.24;100.00;100915.75;5022154;28;20818;-52
2022/12/28 00:28:50;;;;;;;0.47;0.40;;;;;;;3.25;100.00;100916.63;5027148;28;20477;-52
2022/12/28 00:31:20;;;;;;;0.90;0.77;;;;;;;3.21;100.00;100913.09;5026082;28;20452;-53
2022/12/28 00:33:47;;;;;;;0.70;0.70;;;;;;;3.29;100.00;100907.94;5020162;28;20451;-51
2022/12/28 00:36:14;;;;;;;0.53;0.30;;;;;;;3.26;100.00;100902.63;5021313;28;20459;-51
2022/12/28 00:38:41;;;;;;;3.20;2.00;;;;;;;3.35;100.00;100899.22;5031998;28;20480;-52
2022/12/28 00:41:08;;;;;;;0.70;0.67;;;;;;;3.41;100.00;100887.03;5021399;28;20453;-52
2022/12/28 00:43:35;;;;;;;0.87;0.87;;;;;;;3.53;100.00;100874.00;5026754;28;20537;-53
2022/12/28 00:46:02;;;;;;;10.70;1.63;;;;;;;3.63;100.00;100874.09;5043255;28;20532;-51
2022/12/28 00:48:28;;;;;;;0.50;0.50;;;;;;;3.65;100.00;100862.72;5026430;28;20962;-53
2022/12/28 00:51:07;;;;;;;0.60;0.53;;;;;;;3.80;100.00;100862.84;5026757;28;20513;-54
2022/12/28 00:53:34;;;;;;;1.37;1.30;;;;;;;3.86;100.00;100864.66;5020525;28;20523;-52
2022/12/28 00:56:10;;;;;;;3.40;0.80;;;;;;;3.85;100.00;100865.53;5026349;28;20953;-52
2022/12/28 00:58:37;;;;;;;0.60;0.60;;;;;;;3.90;100.00;100874.34;5005838;28;20983;-52
2022/12/28 01:01:10;;;;;;;0.60;0.60;;;;;;;3.86;100.00;100857.66;5019612;28;20451;-52
2022/12/28 01:03:36;;;;;;;1.33;1.30;;;;;;;3.79;100.00;100861.09;5021523;28;20452;-51
2022/12/28 01:06:07;;;;;;;1.47;0.70;;;;;;;3.71;100.00;100854.03;5026372;28;20580;-52
2022/12/28 01:08:35;;;;;;;1.53;1.43;;;;;;;3.75;100.00;100847.91;5030296;28;20478;-54
2022/12/28 01:11:09;;;;;;;0.93;0.63;;;;;;;3.72;100.00;100835.63;5019178;28;20448;-52
2022/12/28 01:13:37;;;;;;;1.17;0.97;;;;;;;3.73;100.00;100832.13;5019513;28;20874;-55
2022/12/28 01:16:14;;;;;;;1.03;0.50;;;;;;;3.70;100.00;100818.06;5026039;28;20448;-54
2022/12/28 01:18:42;;;;;;;0.83;0.83;;;;;;;3.80;100.00;100818.16;5026306;28;20467;-52
2022/12/28 01:21:14;;;;;;;0.70;0.70;;;;;;;3.89;100.00;100805.94;5021751;28;20451;-52
2022/12/28 01:23:41;;;;;;;1.00;0.97;;;;;;;3.96;100.00;100813.00;5019293;28;20953;-52
2022/12/28 01:26:08;;;;;;;0.73;0.50;;;;;;;3.95;100.00;100800.72;5022673;28;20579;-52
2022/12/28 01:28:35;;;;;;;11.83;1.97;;;;;;;4.00;100.00;100794.63;5025970;28;20476;-52
2022/12/28 01:31:11;;;;;;;9.53;1.43;;;;;;;3.96;100.00;100805.09;5023227;28;20448;-53
2022/12/28 01:33:38;;;;;;;1.70;1.23;;;;;;;3.97;100.00;100794.59;5002126;28;20456;-52
2022/12/28 01:36:06;;;;;;;1.20;1.13;;;;;;;4.00;100.00;100812.16;5020926;28;20472;-51
2022/12/28 01:38:33;;;;;;;2.30;0.87;;;;;;;3.98;100.00;100822.69;5031140;28;20486;-51
2022/12/28 01:41:00;;;;;;;3.80;1.90;;;;;;;4.15;100.00;100823.66;5020561;28;20444;-52
2022/12/28 01:43:40;;;;;;;4.93;1.10;;;;;;;4.30;100.00;100814.97;5025482;28;20870;-51
2022/12/28 01:46:11;;;;;;;3.17;2.97;;;;;;;4.45;100.00;100796.63;5043145;28;20495;-52
2022/12/28 01:48:48;;;;;;;1.83;1.73;;;;;;;4.50;100.00;100785.22;5024635;28;20473;-52
2022/12/28 01:51:17;;;;;;;1.87;1.73;;;;;;;4.53;100.00;100790.53;5008346;28;20815;-52
2022/12/28 01:53:44;;;;;;;1.43;1.33;;;;;;;4.47;100.00;100788.72;5019445;28;20456;-52
2022/12/28 01:56:11;;;;;;;1.67;1.57;;;;;;;4.55;100.00;100802.81;5026019;28;20583;-52
2022/12/28 01:58:38;;;;;;;1.50;1.33;;;;;;;4.55;100.00;100801.94;5022195;28;21034;-51
2022/12/28 02:01:05;;;;;;;0.80;0.80;;;;;;;4.61;100.00;100792.28;5018895;28;20452;-52
2022/12/28 02:03:34;;;;;;;1.30;1.20;;;;;;;4.65;100.00;100790.53;5021799;28;20452;-53
2022/12/28 02:06:05;;;;;;;1.07;0.97;;;;;;;4.78;100.00;100784.44;5025465;28;20522;-51
2022/12/28 02:08:40;;;;;;;10.93;2.20;;;;;;;4.73;100.00;100781.81;5028765;28;21040;-51
2022/12/28 02:11:11;;;;;;;1.87;1.00;;;;;;;4.85;100.00;100783.59;5018705;28;20819;-52
2022/12/28 02:13:40;;;;;;;2.27;1.83;;;;;;;4.76;100.00;100778.31;5018963;28;20445;-53
2022/12/28 02:16:11;;;;;;;2.50;0.80;;;;;;;4.92;100.00;100776.56;5024912;28;20452;-52
2022/12/28 02:18:41;;;;;;;0.80;0.80;;;;;;;4.64;100.00;100765.09;5025199;28;20467;-53
2022/12/28 02:21:23;;;;;;;1.30;1.20;;;;;;;4.58;100.00;100767.72;5020843;28;20452;-53
2022/12/28 02:23:52;;;;;;;2.67;1.17;;;;;;;4.66;100.00;100766.88;5022083;28;20505;-51
2022/12/28 02:26:28;;;;;;;3.03;1.13;;;;;;;4.69;100.00;100759.00;5025133;28;20498;-52
2022/12/28 02:29:31;;;;;;;1.27;1.17;;;;;;;4.65;100.00;100753.69;5029142;28;20478;-52
2022/12/28 02:32:09;;;;;;;1.70;1.50;;;;;;;4.78;100.00;100739.69;5029198;28;20506;-52
2022/12/28 02:34:56;;;;;;;1.80;0.80;;;;;;;4.90;100.00;100737.06;5028445;28;20447;-53
2022/12/28 02:37:29;;;;;;;1.07;0.83;;;;;;;5.04;100.00;100734.47;5034434;28;20447;-54
2022/12/28 02:40:04;;;;;;;2.10;1.50;;;;;;;5.10;100.00;100738.88;5032652;28;20871;-52
2022/12/28 02:42:33;;;;;;;1.87;1.77;;;;;;;5.22;100.00;100723.94;5026602;28;20501;-52
2022/12/28 02:50:53;;;;;;;1.53;1.43;;;;;;;5.43;100.00;100709.00;5025625;28;21104;-51
2022/12/28 02:56:06;;;;;;;1.33;1.23;;;;;;;5.56;100.00;100695.78;5023143;28;20453;-51
2022/12/28 02:57:39;;;;;;;2.10;1.90;;;;;;;5.81;100.00;100683.44;4979557;28;20899;-52
2022/12/28 03:00:14;;;;;;;0.93;0.93;;;;;;;5.96;100.00;100685.19;5027201;28;20887;-52
2022/12/28 03:03:08;;;;;;;1.23;1.13;;;;;;;5.88;100.00;100679.00;5028899;28;20995;-53
2022/12/28 03:09:06;;;;;;;2.30;1.00;;;;;;;6.10;100.00;100667.53;5031962;28;20471;-52
2022/12/28 03:11:43;;;;;;;1.90;1.70;;;;;;;6.17;100.00;100668.41;4995992;28;20962;-52
2022/12/28 03:14:14;;;;;;;1.80;1.70;;;;;;;6.19;100.00;100662.22;5028635;28;20448;-52
2022/12/28 03:31:06;;;;;;;0.50;0.50;;;;;;;6.37;100.00;100631.31;5028180;28;20535;-52
2022/12/28 03:33:40;;;;;;;1.40;1.30;;;;;;;6.37;100.00;100631.31;5027535;28;20451;-52
2022/12/28 03:36:29;;;;;;;1.40;1.20;;;;;;;6.36;100.00;100629.56;5025801;28;20443;-53
2022/12/28 03:39:34;;;;;;;0.50;0.50;;;;;;;6.53;100.00;100617.13;5021781;28;20501;-52
2022/12/28 03:46:01;;;;;;;0.60;0.60;;;;;;;6.56;100.00;100603.03;4950703;28;20495;-52
2022/12/28 03:48:36;;;;;;;10.47;1.17;;;;;;;6.75;100.00;100610.81;5021281;28;20454;-52
2022/12/28 03:51:03;;;;;;;0.77;0.77;;;;;;;6.88;100.00;100592.22;5020965;28;20444;-52
2022/12/28 03:53:38;;;;;;;1.40;1.07;;;;;;;6.83;100.00;100594.88;5027185;28;20443;-50
2022/12/28 03:56:16;;;;;;;1.50;1.10;;;;;;;6.76;100.00;100588.78;5021038;28;20445;-50
2022/12/28 03:58:42;;;;;;;4.77;0.83;;;;;;;6.71;100.00;100592.34;5023487;28;20476;-50
2022/12/28 04:01:09;;;;;;;1.10;1.00;;;;;;;6.76;100.00;100588.78;5027799;28;20459;-50
2022/12/28 04:03:36;;;;;;;0.80;0.73;;;;;;;6.77;100.00;100584.38;5025629;28;20535;-50
2022/12/28 04:06:04;;;;;;;2.60;1.40;;;;;;;6.86;100.00;100575.50;5021247;28;20487;-50
2022/12/28 04:08:32;;;;;;;2.03;1.73;;;;;;;6.86;100.00;100588.72;5033823;28;21016;-50
2022/12/28 04:11:00;;;;;;;4.63;0.93;;;;;;;6.89;100.00;100578.13;5020575;28;20458;-49
2022/12/28 04:13:30;;;;;;;1.30;1.20;;;;;;;6.87;100.00;100585.19;5022001;28;20469;-53
2022/12/28 04:15:58;;;;;;;12.13;2.53;;;;;;;6.83;100.00;100574.63;5027506;28;20452;-50
2022/12/28 04:18:24;;;;;;;1.90;1.20;;;;;;;6.91;100.00;100569.28;5026710;28;20542;-50
2022/12/28 04:20:51;;;;;;;3.40;2.47;;;;;;;6.98;100.00;100568.31;5020434;28;20455;-52
2022/12/28 04:23:18;;;;;;;1.03;1.03;;;;;;;7.20;100.00;100571.63;5021169;28;20452;-50
2022/12/28 04:25:59;;;;;;;1.83;1.20;;;;;;;7.04;100.00;100570.91;5026936;28;20491;-50
2022/12/28 04:28:26;;;;;;;1.27;0.60;;;;;;;7.04;100.00;100575.31;5027202;28;20444;-50
2022/12/28 04:30:52;;;;;;;3.40;1.33;;;;;;;6.97;100.00;100576.25;5021850;28;20459;-50
2022/12/28 04:33:19;;;;;;;6.20;0.80;;;;;;;7.04;100.00;100573.56;5020165;28;20474;-50
2022/12/28 04:35:45;;;;;;;2.90;1.23;;;;;;;7.06;100.00;100568.25;5025858;28;20448;-52
2022/12/28 04:38:12;;;;;;;0.50;0.50;;;;;;;7.08;100.00;100569.97;5027522;28;20960;-50
2022/12/28 04:40:38;;;;;;;0.77;0.77;;;;;;;6.94;100.00;100571.88;5025680;28;20441;-51
2022/12/28 04:43:05;;;;;;;0.77;0.77;;;;;;;6.89;100.00;100572.81;5027240;28;20456;-51
2022/12/28 04:45:31;;;;;;;1.67;1.50;;;;;;;7.01;100.00;100572.72;5034696;28;20489;-50
2022/12/28 04:47:58;;;;;;;0.53;0.47;;;;;;;6.95;100.00;100564.84;5035099;28;20451;-50
2022/12/28 04:50:25;;;;;;;1.77;0.93;;;;;;;7.05;100.00;100564.75;5022738;28;20472;-52
2022/12/28 04:52:52;;;;;;;0.73;0.70;;;;;;;7.12;100.00;100565.53;5024124;28;21076;-51
2022/12/28 04:55:18;;;;;;;2.40;1.07;;;;;;;7.26;100.00;100566.25;5023172;28;20448;-51
2022/12/28 04:57:59;;;;;;;0.70;0.70;;;;;;;7.36;100.00;100567.94;5020080;28;20443;-53
2022/12/28 05:00:25;;;;;;;0.80;0.80;;;;;;;7.31;100.00;100560.94;5021544;28;20845;-52
2022/12/28 05:02:52;;;;;;;0.87;0.87;;;;;;;7.29;100.00;100549.53;5026542;28;20483;-51
2022/12/28 05:05:18;;;;;;;1.37;1.27;;;;;;;7.39;100.00;100549.38;5024652;28;20451;-51
2022/12/28 05:07:45;;;;;;;0.37;0.30;;;;;;;7.47;100.00;100536.06;5024865;28;20447;-51
2022/12/28 05:10:11;;;;;;;1.10;0.83;;;;;;;7.55;100.00;100538.66;5021433;28;20476;-50
2022/12/28 05:12:38;;;;;;;1.30;1.20;;;;;;;7.57;100.00;100539.50;5026005;28;20449;-51
2022/12/28 05:15:05;;;;;;;0.70;0.70;;;;;;;7.65;100.00;100535.84;5024945;28;20447;-51
2022/12/28 05:17:31;;;;;;;2.10;1.17;;;;;;;7.65;100.00;100535.84;5019411;28;20444;-51
2022/12/28 05:19:58;;;;;;;1.97;1.50;;;;;;;7.65;100.00;100529.66;5020329;28;20472;-51
2022/12/28 05:22:24;;;;;;;1.80;0.97;;;;;;;7.74;100.00;100534.84;5026822;28;20479;-56
2022/12/28 05:24:51;;;;;;;3.53;0.90;;;;;;;7.73;100.00;100527.81;5025465;28;20458;-56
2022/12/28 05:27:17;;;;;;;0.60;0.60;;;;;;;7.69;100.00;100532.28;5019404;28;20496;-56
2022/12/28 05:29:44;;;;;;;0.70;0.70;;;;;;;7.90;100.00;100531.09;5020051;28;20469;-56
2022/12/28 05:32:10;;;;;;;1.00;0.67;;;;;;;7.87;100.00;100527.63;5026279;28;20456;-55
2022/12/28 05:34:38;;;;;;;0.60;0.60;;;;;;;7.87;100.00;100530.28;5026114;28;20975;-55
2022/12/28 05:37:05;;;;;;;0.40;0.30;;;;;;;7.95;100.00;100528.41;5019405;28;20973;-56
2022/12/28 05:39:31;;;;;;;0.43;0.43;;;;;;;8.12;100.00;100528.16;5032444;28;20561;-56
2022/12/28 05:41:59;;;;;;;0.87;0.87;;;;;;;8.11;100.00;100529.06;5026424;28;20502;-56
2022/12/28 05:44:26;;;;;;;0.60;0.50;;;;;;;7.99;100.00;100524.81;5026182;28;20494;-55
2022/12/28 05:46:52;;;;;;;1.20;1.10;;;;;;;8.12;100.00;100525.50;5032507;28;20503;-56
2022/12/28 05:49:19;;;;;;;2.93;1.53;;;;;;;8.16;100.00;100519.28;5019158;28;20879;-56
2022/12/28 05:51:47;;;;;;;0.30;0.20;;;;;;;8.15;100.00;100517.53;5025935;28;20451;-55
2022/12/28 05:54:14;;;;;;;1.00;1.00;;;;;;;8.06;100.00;100512.34;5019241;28;20452;-55
2022/12/28 05:56:40;;;;;;;3.70;0.80;;;;;;;8.19;100.00;100509.50;5024995;28;20835;-56
2022/12/28 05:59:08;;;;;;;1.20;1.17;;;;;;;8.13;100.00;100509.59;5013449;28;20476;-55
2022/12/28 06:01:40;;;;;;;0.30;0.30;;;;;;;8.05;100.00;100516.78;5024613;28;20453;-56
2022/12/28 06:04:13;;;;;;;1.33;1.10;;;;;;;8.02;100.00;100503.59;5008158;28;20975;-56
2022/12/28 06:06:40;;;;;;;3.03;0.83;;;;;;;8.21;100.00;100506.81;5022301;28;20491;-54
2022/12/28 06:09:06;;;;;;;0.67;0.67;;;;;;;8.23;100.00;100513.00;5029737;28;20477;-56
2022/12/28 06:11:33;;;;;;;3.07;0.90;;;;;;;8.24;100.00;100512.09;5022561;28;20501;-56
2022/12/28 06:14:02;;;;;;;1.27;1.07;;;;;;;8.26;100.00;100505.88;5019256;28;20447;-56
2022/12/28 06:16:31;;;;;;;0.73;0.47;;;;;;;8.26;100.00;100502.34;5022627;28;20452;-56
2022/12/28 06:18:58;;;;;;;1.07;1.07;;;;;;;8.22;100.00;100504.19;5025663;28;20469;-56
2022/12/28 06:21:29;;;;;;;1.40;0.80;;;;;;;8.29;100.00;100502.28;5023098;28;20452;-56
2022/12/28 06:23:57;;;;;;;3.87;0.87;;;;;;;8.19;100.00;100500.69;5018638;28;20816;-55
2022/12/28 06:26:26;;;;;;;22.37;0.80;;;;;;;8.40;100.00;100494.22;5020716;28;20511;-55
2022/12/28 06:28:52;;;;;;;3.07;0.40;;;;;;;8.20;100.00;100491.84;5025304;28;20476;-56
2022/12/28 06:31:30;;;;;;;0.57;0.57;;;;;;;8.32;100.00;100500.47;5024255;28;20498;-56
2022/12/28 06:33:59;;;;;;;0.47;0.40;;;;;;;8.14;100.00;100489.31;5025464;28;20473;-56
2022/12/28 06:36:29;;;;;;;6.57;1.07;;;;;;;8.26;100.00;100486.47;5025529;28;20566;-55
2022/12/28 06:38:57;;;;;;;0.50;0.30;;;;;;;8.26;100.00;100475.88;5020457;28;20491;-56
2022/12/28 06:41:25;;;;;;;0.70;0.70;;;;;;;8.36;100.00;100477.50;5018924;28;20539;-56
2022/12/28 06:43:52;;;;;;;2.30;0.43;;;;;;;8.27;100.00;100477.63;5023263;28;20459;-56
2022/12/28 06:46:20;;;;;;;0.40;0.30;;;;;;;8.26;100.00;100481.16;5044004;28;20848;-55
2022/12/28 06:48:47;;;;;;;0.60;0.50;;;;;;;8.19;100.00;100485.66;5022689;28;20500;-56
2022/12/28 06:51:27;;;;;;;0.50;0.50;;;;;;;8.35;100.00;100481.03;5025377;28;20803;-56
2022/12/28 06:53:54;;;;;;;1.10;1.10;;;;;;;8.34;100.00;100476.63;5019092;28;20451;-56
2022/12/28 06:56:29;;;;;;;0.70;0.70;;;;;;;8.38;100.00;100472.19;5025741;28;20452;-56
2022/12/28 06:58:56;;;;;;;0.40;0.30;;;;;;;8.33;100.00;100472.19;5024730;28;20509;-56
2022/12/28 07:01:31;;;;;;;0.60;0.40;;;;;;;8.42;100.00;100476.53;5025470;28;20452;-55
2022/12/28 07:03:59;;;;;;;0.60;0.40;;;;;;;8.24;100.00;100469.72;5025631;28;20452;-55
2022/12/28 07:06:27;;;;;;;0.57;0.50;;;;;;;8.36;100.00;100464.28;5019327;28;20869;-55
2022/12/28 07:09:03;;;;;;;0.40;0.40;;;;;;;8.48;100.00;100458.72;5033128;28;21039;-56
2022/12/28 07:11:30;;;;;;;1.27;1.17;;;;;;;8.46;100.00;100465.84;5024929;28;20449;-56
2022/12/28 07:13:57;;;;;;;0.50;0.50;;;;;;;8.40;100.00;100465.09;5022604;28;20448;-56
2022/12/28 07:16:26;;;;;;;1.93;1.30;;;;;;;8.58;100.00;100465.63;5026747;28;20451;-56
2022/12/28 07:18:53;;;;;;;5.60;0.87;;;;;;;8.38;100.00;100454.50;5028903;28;20465;-56
2022/12/28 07:21:23;;;;;;;0.50;0.50;;;;;;;8.32;100.00;100443.97;5025798;28;20539;-56
2022/12/28 07:23:51;;;;;;;0.80;0.80;;;;;;;8.35;100.00;100446.59;5022016;28;20941;-55
2022/12/28 07:26:20;;;;;;;1.17;1.07;;;;;;;8.33;100.00;100433.34;5025240;28;20568;-55
2022/12/28 07:28:50;;;;;;;3.67;0.97;;;;;;;8.43;100.00;100443.84;5028662;28;20560;-56
2022/12/28 07:31:19;;;;;;;1.47;0.80;;;;;;;8.42;100.00;100435.00;5027093;28;20447;-56
2022/12/28 07:33:46;;;;;;;0.87;0.70;;;;;;;8.48;100.00;100419.00;5021887;28;20444;-56
2022/12/28 07:36:15;;;;;;;1.73;0.77;;;;;;;8.64;100.00;100435.50;5023687;28;20537;-56
2022/12/28 07:38:42;;;;;;;0.70;0.53;;;;;;;8.53;100.00;100429.53;5033976;28;20526;-55
2022/12/28 07:41:15;;;;;;;0.60;0.60;;;;;;;8.49;100.00;100426.03;5022430;28;20448;-55
2022/12/28 07:43:41;;;;;;;0.40;0.37;;;;;;;8.48;100.00;100437.53;5021323;28;20466;-55
2022/12/28 07:46:13;;;;;;;2.90;2.70;;;;;;;8.62;100.00;100432.00;5034588;28;20453;-55
2022/12/28 07:48:41;;;;;;;8.33;0.60;;;;;;;8.58;100.00;100440.91;5026495;28;20527;-55
2022/12/28 07:51:16;;;;;;;1.03;1.03;;;;;;;8.55;100.00;100441.84;5028385;28;20467;-56
2022/12/28 07:53:45;;;;;;;0.40;0.33;;;;;;;8.63;100.00;100436.38;5022056;28;20524;-56
2022/12/28 07:56:12;;;;;;;0.97;0.80;;;;;;;8.68;100.00;100446.94;5028071;28;20543;-56
2022/12/28 07:58:39;;;;;;;0.40;0.30;;;;;;;8.50;100.00;100448.13;5024882;28;20483;-55
2022/12/28 08:01:10;;;;;;;0.50;0.40;;;;;;;8.68;100.00;100437.19;5021273;28;20448;-55
2022/12/28 08:03:39;;;;;;;0.40;0.30;;;;;;;8.80;100.00;100447.56;5023777;28;20214;-56
2022/12/28 08:06:08;;;;;;;1.67;0.77;;;;;;;8.76;100.00;100452.94;5027502;28;20453;-56
2022/12/28 08:08:36;;;;;;;0.50;0.40;;;;;;;8.69;100.00;100456.63;5031318;28;20467;-56
2022/12/28 08:11:09;;;;;;;0.40;0.40;;;;;;;8.63;100.00;100448.75;5021222;28;20459;-55
2022/12/28 08:13:37;;;;;;;0.50;0.40;;;;;;;8.72;100.00;100445.97;5021229;28;20457;-56
2022/12/28 08:16:05;;;;;;;0.50;0.50;;;;;;;8.70;100.00;100442.47;5021259;28;20455;-55
2022/12/28 08:18:32;;;;;;;0.60;0.40;;;;;;;8.55;100.00;100436.53;5020509;28;20500;-56
2022/12/28 08:21:09;;;;;;;2.50;0.93;;;;;;;8.73;100.00;100442.41;5026908;28;20565;-56
2022/12/28 08:23:35;;;;;;;0.50;0.40;;;;;;;8.66;100.00;100436.34;5027646;28;20447;-56
2022/12/28 08:26:11;;;;;;;0.70;0.67;;;;;;;8.78;100.00;100428.19;5022290;28;20448;-56
2022/12/28 08:28:39;;;;;;;0.83;0.83;;;;;;;8.67;100.00;100419.56;5020542;28;20477;-56
2022/12/28 08:31:08;;;;;;;0.60;0.37;;;;;;;8.73;100.00;100426.50;5024067;28;20449;-56
2022/12/28 08:33:35;;;;;;;0.40;0.40;;;;;;;8.71;100.00;100425.66;5027008;28;20495;-56
2022/12/28 08:36:02;;;;;;;3.50;1.17;;;;;;;8.75;100.00;100417.59;5025060;28;20949;-56
2022/12/28 08:38:29;;;;;;;1.10;0.70;;;;;;;8.77;100.00;100415.84;5032918;28;20470;-56
2022/12/28 08:40:57;;;;;;;0.60;0.60;;;;;;;8.78;100.00;100416.72;5023291;28;20946;-56
2022/12/28 08:43:26;;;;;;;0.40;0.40;;;;;;;8.75;100.00;100416.75;5027534;28;20938;-56
2022/12/28 08:46:04;;;;;;;0.40;0.40;;;;;;;8.78;100.00;100409.63;5023804;28;20449;-56
2022/12/28 08:48:32;;;;;;;0.87;0.87;;;;;;;8.92;100.00;100403.19;5020583;28;20491;-56
2022/12/28 08:51:07;;;;;;;0.50;0.40;;;;;;;8.96;100.00;100400.44;5020524;28;20463;-55
2022/12/28 08:53:34;;;;;;;0.70;0.50;;;;;;;8.76;100.00;100397.28;5026653;28;20447;-55
2022/12/28 08:56:10;;;;;;;0.70;0.70;;;;;;;8.79;100.00;100402.56;5020065;28;20456;-55
2022/12/28 08:58:40;;;;;;;1.73;1.63;;;;;;;8.92;100.00;100392.59;5023360;28;20464;-56
2022/12/28 09:01:10;;;;;;;0.50;0.47;;;;;;;8.99;100.00;100391.53;5026583;28;21008;-56
2022/12/28 09:03:38;;;;;;;0.43;0.40;;;;;;;9.11;100.00;100394.81;5024534;28;20905;-56
2022/12/28 09:06:06;;;;;;;6.33;0.93;;;;;;;8.91;100.00;100386.41;5019952;28;20547;-56
2022/12/28 09:08:33;;;;;;;0.73;0.47;;;;;;;8.97;100.00;100380.09;5032897;28;20566;-56
2022/12/28 09:11:00;;;;;;;0.83;0.83;;;;;;;9.03;100.00;100395.84;5019797;28;20538;-56
2022/12/28 09:13:27;;;;;;;6.83;1.00;;;;;;;8.97;100.00;100388.91;5024578;28;20452;-56
2022/12/28 09:16:02;;;;;;;3.67;0.77;;;;;;;9.00;100.00;100393.28;5015306;28;20454;-57
2022/12/28 09:18:29;;;;;;;0.40;0.30;;;;;;;9.15;100.00;100395.59;5020338;28;20444;-57
2022/12/28 09:20:56;;;;;;;6.30;0.70;;;;;;;9.26;100.00;100395.38;5026265;28;20485;-56
2022/12/28 09:23:22;;;;;;;0.47;0.30;;;;;;;9.18;100.00;100395.53;5025669;28;20483;-56
2022/12/28 09:25:49;;;;;;;0.40;0.40;;;;;;;9.10;100.00;100400.16;5019433;28;20456;-57
2022/12/28 09:28:15;;;;;;;0.80;0.60;;;;;;;9.11;100.00;100392.16;5019722;28;20496;-57
2022/12/28 09:30:41;;;;;;;5.23;2.60;;;;;;;9.07;100.00;100409.03;5019195;28;20482;-56
2022/12/28 09:35:57;;;;;;;0.70;0.70;;;;;;;9.19;100.00;100403.50;5021982;28;20443;-56
2022/12/28 09:38:24;;;;;;;0.87;0.87;;;;;;;9.14;100.00;100402.69;5031403;28;20479;-57
2022/12/28 09:40:50;;;;;;;0.50;0.40;;;;;;;9.16;100.00;100408.84;5022845;28;20445;-57
2022/12/28 09:43:18;;;;;;;1.93;0.83;;;;;;;9.22;100.00;100402.53;5026230;28;20441;-57
2022/12/28 09:45:46;;;;;;;0.50;0.50;;;;;;;9.25;100.00;100420.16;5037608;28;20797;-56
2022/12/28 09:48:17;;;;;;;1.53;0.60;;;;;;;9.32;100.00;100409.41;5029711;28;20859;-56
2022/12/28 09:50:46;;;;;;;0.73;0.53;;;;;;;9.25;100.00;100415.72;5007057;28;20451;-57
2022/12/28 09:53:25;;;;;;;0.40;0.30;;;;;;;9.19;100.00;100426.47;5020452;28;20453;-57
2022/12/28 09:56:03;;;;;;;0.50;0.40;;;;;;;9.29;100.00;100414.75;5025894;28;20443;-57
2022/12/28 09:58:32;;;;;;;0.50;0.50;;;;;;;9.32;100.00;100408.50;5021757;28;20451;-57
2022/12/28 10:01:00;;;;;;;0.57;0.40;;;;;;;9.51;100.00;100407.22;5018815;28;21016;-57
2022/12/28 10:03:35;;;;;;;1.00;0.90;;;;;;;9.46;100.00;100409.09;5022629;28;20476;-57
2022/12/28 10:06:03;;;;;;;0.40;0.40;;;;;;;9.32;100.00;100406.75;5025812;28;20458;-57
2022/12/28 10:08:30;;;;;;;1.23;0.93;;;;;;;9.61;100.00;100399.94;5028723;28;20491;-55
2022/12/28 10:11:01;;;;;;;0.70;0.70;;;;;;;9.40;100.00;100399.47;5018662;28;20547;-55
2022/12/28 10:13:38;;;;;;;2.93;1.00;;;;;;;9.33;100.00;100400.53;5020014;28;20524;-55
2022/12/28 10:16:28;;;;;;;0.40;0.30;;;;;;;9.46;100.00;100398.50;5021919;28;20451;-55
2022/12/28 10:18:54;;;;;;;1.77;1.23;;;;;;;9.57;100.00;100395.56;5018934;28;20468;-55
2022/12/28 10:21:23;;;;;;;8.70;1.57;;;;;;;9.46;100.00;100401.16;5022391;28;20452;-55
2022/12/28 10:23:58;;;;;;;0.60;0.60;;;;;;;9.48;100.00;100388.72;5025858;28;20476;-55
2022/12/28 10:26:46;;;;;;;1.20;0.57;;;;;;;9.58;100.00;100386.69;5025211;28;20470;-55
2022/12/28 10:29:17;;;;;;;0.40;0.30;;;;;;;9.67;100.00;100390.03;5020007;28;20472;-55
2022/12/28 10:31:56;;;;;;;1.17;0.80;;;;;;;9.62;100.00;100394.56;5018825;28;20541;-55
2022/12/28 10:34:23;;;;;;;0.50;0.50;;;;;;;9.66;100.00;100393.59;5021841;28;20539;-55
2022/12/28 10:36:53;;;;;;;0.40;0.30;;;;;;;9.73;100.00;100387.25;5028225;28;20455;-56
2022/12/28 10:39:26;;;;;;;3.40;0.40;;;;;;;9.36;100.00;100381.03;5031773;28;20567;-55
2022/12/28 10:41:54;;;;;;;1.50;0.77;;;;;;;9.70;100.00;100387.28;5018892;28;20517;-55
2022/12/28 10:44:27;;;;;;;0.40;0.40;;;;;;;9.61;100.00;100378.69;5024924;28;20463;-55
2022/12/28 10:47:16;;;;;;;0.80;0.60;;;;;;;9.60;100.00;100371.66;5024340;28;20491;-55
2022/12/28 10:49:50;;;;;;;8.87;0.60;;;;;;;9.46;100.00;100371.97;5022477;28;20463;-55
2022/12/28 10:52:37;;;;;;;0.70;0.43;;;;;;;9.44;100.00;100371.97;5029412;28;20455;-55
2022/12/28 10:55:31;;;;;;;0.60;0.50;;;;;;;9.43;100.00;100372.00;5022928;28;20459;-55
2022/12/28 10:58:21;;;;;;;0.50;0.50;;;;;;;9.54;100.00;100363.81;5022234;28;20458;-55
2022/12/28 11:01:12;;;;;;;0.50;0.43;;;;;;;9.43;100.00;100358.75;5022380;28;20599;-55
2022/12/28 11:04:06;;;;;;;2.10;0.80;;;;;;;9.57;100.00;100346.03;5024239;28;20442;-55
2022/12/28 11:06:56;;;;;;;0.80;0.63;;;;;;;9.65;100.00;100340.56;5021848;28;20873;-55
2022/12/28 11:09:34;;;;;;;10.07;0.73;;;;;;;9.62;100.00;100336.19;5030139;28;20823;-55
2022/12/28 11:12:23;;;;;;;0.67;0.40;;;;;;;9.73;100.00;100336.81;5028705;28;20999;-56
2022/12/28 11:14:51;;;;;;;0.43;0.43;;;;;;;9.66;100.00;100315.75;5025489;28;20444;-55
2022/12/28 11:17:23;;;;;;;1.00;0.77;;;;;;;9.67;100.00;100310.41;5021740;28;20959;-56
2022/12/28 11:20:00;;;;;;;0.50;0.40;;;;;;;9.92;100.00;100309.78;5024152;28;20468;-56
2022/12/28 11:22:28;;;;;;;0.43;0.40;;;;;;;9.92;100.00;100301.84;5029294;28;20532;-51
2022/12/28 11:25:00;;;;;;;1.17;0.90;;;;;;;9.99;100.00;100298.97;5028110;28;20444;-52
2022/12/28 11:27:27;;;;;;;3.80;0.63;;;;;;;9.88;100.00;100301.03;5022414;28;20494;-51
2022/12/28 11:29:54;;;;;;;0.60;0.60;;;;;;;10.07;100.00;100294.34;5021648;28;20492;-52
2022/12/28 11:32:28;;;;;;;1.60;1.20;;;;;;;10.06;100.00;100286.41;5027538;28;20452;-52
2022/12/28 11:34:56;;;;;;;0.60;0.50;;;;;;;10.21;100.00;100280.72;5028106;28;20455;-51
2022/12/28 11:37:22;;;;;;;1.33;0.50;;;;;;;10.23;100.00;100278.88;5024006;28;20539;-53
2022/12/28 11:39:51;;;;;;;0.63;0.57;;;;;;;10.27;99.36;100277.00;5032259;28;20494;-52
2022/12/28 11:42:33;;;;;;;4.67;0.70;;;;;;;10.28;99.98;100273.44;5024593;28;20448;-52
2022/12/28 11:45:13;;;;;;;1.60;0.97;;;;;;;10.24;99.48;100270.00;5029906;28;20485;-52
2022/12/28 11:47:40;;;;;;;0.53;0.50;;;;;;;10.36;99.86;100267.00;5041089;28;20986;-51
2022/12/28 11:50:32;;;;;;;0.73;0.60;;;;;;;10.45;98.80;100265.88;5021341;28;20472;-54
2022/12/28 11:53:00;;;;;;;0.73;0.63;;;;;;;10.32;98.98;100264.50;5024912;28;20448;-52
2022/12/28 11:55:49;;;;;;;0.40;0.30;;;;;;;10.46;99.20;100261.44;5024910;28;20860;-51
2022/12/28 11:58:42;;;;;;;0.83;0.83;;;;;;;10.34;98.70;100260.00;5028331;28;20449;-51
2022/12/28 12:01:09;;;;;;;3.93;1.20;;;;;;;10.40;98.64;100262.47;5028039;28;20448;-52
2022/12/28 12:03:58;;;;;;;1.03;0.70;;;;;;;10.29;98.67;100257.47;5025367;28;20463;-52
2022/12/28 12:06:43;;;;;;;0.57;0.57;;;;;;;10.42;98.81;100265.97;5027073;28;20448;-52
2022/12/28 12:09:24;;;;;;;0.40;0.40;;;;;;;10.40;99.38;100262.47;5027626;28;20502;-51
2022/12/28 12:11:59;;;;;;;0.40;0.30;;;;;;;10.26;99.32;100252.22;5026179;28;20968;-52
2022/12/28 12:14:31;;;;;;;1.10;0.80;;;;;;;10.36;99.61;100255.50;5020700;28;20897;-51